createdAt,value
2022-08-25T05:00:49.807Z,3.15
2022-08-25T05:03:19.547Z,2.92
2022-08-25T05:05:52.543Z,3.83
2022-08-25T05:08:20.283Z,3.13
2022-08-25T05:10:47.873Z,3.20
2022-08-25T05:13:15.581Z,3.38
2022-08-25T05:15:53.965Z,3.53
2022-08-25T05:18:23.326Z,3.55
2022-08-25T05:20:52.166Z,3.75
2022-08-25T05:23:24.487Z,3.88
2022-08-25T05:25:53.104Z,4.25
2022-08-25T05:28:23.324Z,4.18
2022-08-25T05:34:07.682Z,4.57
2022-08-25T05:36:36.099Z,4.40
2022-08-25T05:39:04.524Z,4.18
2022-08-25T05:41:34.026Z,4.30
2022-08-25T05:44:05.638Z,4.00
2022-08-25T05:46:36.295Z,4.60
2022-08-25T05:49:34.320Z,4.22
2022-08-25T05:52:04.750Z,4.07
2022-08-25T06:11:30.724Z,3.90
2022-08-25T06:14:01.426Z,3.72
2022-08-25T06:16:54.973Z,3.67
2022-08-25T06:19:28.111Z,3.45
2022-08-25T06:21:58.752Z,3.80
2022-08-25T06:24:30.384Z,3.38
2022-08-25T06:27:06.944Z,3.28
2022-08-25T06:29:47.534Z,3.28
2022-08-25T06:32:15.350Z,2.97
2022-08-25T06:34:42.962Z,3.10
2022-08-25T06:37:13.248Z,2.65
2022-08-25T06:39:40.969Z,2.60
2022-08-25T06:42:09.919Z,2.22
2022-08-25T06:44:37.624Z,2.15
2022-08-25T06:47:05.458Z,1.83
2022-08-25T06:49:36.030Z,1.92
2022-08-25T06:52:04.376Z,1.52
2022-08-25T06:54:31.866Z,1.45
2022-08-25T06:56:59.362Z,1.70
2022-08-25T06:59:32.186Z,1.50
2022-08-25T07:02:00.880Z,1.30
2022-08-25T07:04:31.377Z,1.20
2022-08-25T07:06:59.165Z,1.35
2022-08-25T07:09:26.657Z,1.00
2022-08-25T07:11:54.444Z,1.20
2022-08-25T07:14:22.276Z,1.33
2022-08-25T07:16:50.501Z,1.52
2022-08-25T07:19:23.043Z,1.20
2022-08-25T07:21:53.270Z,1.35
2022-08-25T07:24:21.627Z,1.30
2022-08-25T07:26:50.008Z,1.10
2022-08-25T07:29:32.204Z,1.27
2022-08-25T07:32:01.985Z,1.50
2022-08-25T07:34:52.150Z,1.40
2022-08-25T07:40:22.543Z,1.50
2022-08-25T07:42:51.938Z,1.90
2022-08-25T07:45:23.180Z,1.58
2022-08-25T07:47:52.339Z,1.60
2022-08-25T07:50:22.899Z,1.50
2022-08-25T07:52:55.252Z,1.50
2022-08-25T07:55:27.812Z,1.97
2022-08-25T07:57:57.326Z,1.80
2022-08-25T08:00:28.025Z,1.60
2022-08-25T08:02:56.648Z,1.30
2022-08-25T08:05:25.002Z,1.40
2022-08-25T08:07:53.666Z,1.40
2022-08-25T08:10:47.995Z,1.58
2022-08-25T08:13:11.115Z,2.00
2022-08-25T08:15:43.126Z,1.70
2022-08-25T08:18:11.801Z,1.85
2022-08-25T08:20:46.438Z,1.83
2022-08-25T08:23:14.900Z,1.65
2022-08-25T08:25:42.339Z,1.67
2022-08-25T08:28:10.863Z,1.50
2022-08-25T08:30:38.748Z,1.70
2022-08-25T08:33:11.591Z,1.58
2022-08-25T08:38:14.911Z,1.30
2022-08-25T08:42:07.721Z,1.10
2022-08-25T08:44:42.126Z,1.30
2022-08-25T08:47:40.457Z,1.20
2022-08-25T08:50:23.991Z,1.60
2022-08-25T08:53:02.361Z,1.58
2022-08-25T08:55:33.947Z,2.05
2022-08-25T08:58:08.952Z,1.38
2022-08-25T09:00:52.070Z,1.80
2022-08-25T09:03:41.956Z,1.67
2022-08-25T09:06:22.487Z,1.65
2022-08-25T09:08:50.327Z,1.60
2022-08-25T09:11:59.262Z,1.42
2022-08-25T09:14:39.874Z,1.90
2022-08-25T09:17:18.264Z,1.17
2022-08-25T09:20:31.009Z,1.20
2022-08-25T09:23:09.824Z,1.35
2022-08-25T09:25:54.009Z,1.20
2022-08-25T09:28:36.694Z,1.30
2022-08-25T09:31:29.492Z,1.27
2022-08-25T09:34:03.589Z,1.05
2022-08-25T09:36:37.539Z,1.20
2022-08-25T09:39:06.713Z,1.20
2022-08-25T09:41:51.467Z,1.30
2022-08-25T09:44:32.035Z,1.20
2022-08-25T09:47:08.253Z,1.35
2022-08-25T09:49:47.273Z,1.73
2022-08-25T09:52:41.841Z,1.42
2022-08-25T09:55:09.521Z,1.70
2022-08-25T09:57:43.430Z,1.90
2022-08-25T10:00:25.271Z,1.50
2022-08-25T10:03:11.794Z,2.20
2022-08-25T10:05:59.422Z,2.05
2022-08-25T10:08:37.520Z,2.10
2022-08-25T10:11:16.559Z,1.98
2022-08-25T10:13:51.834Z,1.67
2022-08-25T10:16:25.509Z,1.42
2022-08-25T10:19:22.633Z,2.00
2022-08-25T10:22:05.618Z,1.98
2022-08-25T10:24:33.842Z,2.13
2022-08-25T10:27:16.840Z,1.80
2022-08-25T10:30:02.957Z,1.80
2022-08-25T10:32:31.133Z,1.50
2022-08-25T10:35:03.477Z,1.60
2022-08-25T10:37:52.576Z,1.45
2022-08-25T10:40:49.363Z,1.60
2022-08-25T10:43:28.718Z,1.50
2022-08-25T10:46:02.331Z,1.40
2022-08-25T10:48:56.191Z,1.55
2022-08-25T10:51:36.135Z,1.40
2022-08-25T10:54:13.715Z,1.60
2022-08-25T10:56:46.093Z,1.55
2022-08-25T10:59:17.405Z,1.20
2022-08-25T11:01:53.567Z,1.70
2022-08-25T11:04:36.507Z,2.08
2022-08-25T11:07:10.948Z,1.33
2022-08-25T11:09:41.600Z,1.35
2022-08-25T11:12:15.231Z,1.50
2022-08-25T11:14:52.109Z,1.40
2022-08-25T11:17:35.900Z,1.58
2022-08-25T11:20:15.091Z,1.30
2022-08-25T11:23:11.322Z,1.40
2022-08-25T11:25:44.002Z,1.50
2022-08-25T11:28:32.494Z,1.40
2022-08-25T11:31:02.260Z,1.50
2022-08-25T11:33:31.071Z,1.50
2022-08-25T11:36:11.321Z,1.50
2022-08-25T11:38:42.369Z,1.50
2022-08-25T11:41:21.601Z,1.50
2022-08-25T11:44:20.678Z,1.55
2022-08-25T11:47:21.165Z,1.40
2022-08-25T11:50:02.324Z,1.60
2022-08-25T11:52:46.922Z,1.25
2022-08-25T11:55:30.027Z,1.70
2022-08-25T11:58:23.530Z,1.83
2022-08-25T12:00:55.003Z,1.37
2022-08-25T12:03:34.384Z,1.70
2022-08-25T12:06:15.911Z,1.50
2022-08-25T12:09:08.030Z,1.58
2022-08-25T12:11:52.340Z,1.50
2022-08-25T12:14:22.514Z,1.70
2022-08-25T12:16:56.870Z,2.05
2022-08-25T12:19:44.253Z,1.48
2022-08-25T12:22:11.603Z,1.52
2022-08-25T12:24:48.776Z,1.33
2022-08-25T12:27:28.301Z,1.67
2022-08-25T12:30:18.631Z,1.80
2022-08-25T12:33:13.858Z,1.80
2022-08-25T12:35:57.856Z,1.70
2022-08-25T12:38:28.794Z,2.10
2022-08-25T12:41:06.826Z,1.80
2022-08-25T12:43:40.149Z,1.75
2022-08-25T12:46:21.845Z,1.80
2022-08-25T12:49:26.479Z,1.90
2022-08-25T12:52:01.886Z,1.80
2022-08-25T12:54:57.638Z,1.85
2022-08-25T12:57:50.019Z,1.70
2022-08-25T13:03:04.007Z,1.75
2022-08-25T13:05:47.949Z,1.92
2022-08-25T13:08:48.050Z,1.73
2022-08-25T13:11:40.889Z,1.95
2022-08-25T13:14:18.154Z,1.80
2022-08-25T13:17:01.374Z,1.92
2022-08-25T13:19:35.223Z,1.83
2022-08-25T13:22:19.436Z,2.00
2022-08-25T13:24:50.945Z,1.83
2022-08-25T13:27:26.642Z,1.92
2022-08-25T13:30:04.033Z,1.90
2022-08-25T13:32:36.988Z,1.90
2022-08-25T13:35:14.706Z,1.73
2022-08-25T13:37:45.150Z,2.00
2022-08-25T13:40:27.875Z,2.10
2022-08-25T13:42:59.915Z,2.00
2022-08-25T13:47:59.540Z,1.65
2022-08-25T13:50:27.098Z,2.13
2022-08-25T13:53:11.271Z,1.80
2022-08-25T13:55:51.664Z,1.80
2022-08-25T13:58:24.651Z,1.95
2022-08-25T14:01:22.331Z,2.08
2022-08-25T14:04:22.656Z,2.05
2022-08-25T14:07:12.061Z,1.95
2022-08-25T14:09:58.229Z,1.90
2022-08-25T14:12:46.432Z,1.98
2022-08-25T14:15:16.951Z,1.90
2022-08-25T14:17:48.673Z,1.80
2022-08-25T14:20:28.959Z,1.73
2022-08-25T14:23:10.042Z,1.90
2022-08-25T14:25:42.300Z,1.98
2022-08-25T14:28:16.945Z,1.75
2022-08-25T14:30:54.419Z,2.00
2022-08-25T14:33:28.202Z,1.90
2022-08-25T14:35:58.957Z,1.90
2022-08-25T14:38:26.408Z,2.00
2022-08-25T14:40:54.763Z,1.65
2022-08-25T14:43:31.502Z,2.03
2022-08-25T14:46:03.167Z,2.00
2022-08-25T14:48:40.899Z,1.85
2022-08-25T14:51:12.052Z,1.83
2022-08-25T14:53:40.206Z,1.77
2022-08-25T14:56:10.508Z,2.03
2022-08-25T14:58:48.423Z,1.83
2022-08-25T15:01:29.397Z,2.10
2022-08-25T15:04:03.573Z,2.00
2022-08-25T15:06:31.911Z,2.10
2022-08-25T15:09:08.070Z,1.55
2022-08-25T15:11:36.528Z,1.70
2022-08-25T15:14:15.644Z,1.52
2022-08-25T15:16:47.628Z,1.73
2022-08-25T15:19:19.389Z,1.73
2022-08-25T15:21:48.168Z,1.90
2022-08-25T15:24:18.068Z,1.70
2022-08-25T15:26:59.909Z,2.10
2022-08-25T15:29:30.356Z,1.80
2022-08-25T15:32:00.088Z,1.70
2022-08-25T15:34:28.740Z,1.83
2022-08-25T15:37:07.609Z,1.73
2022-08-25T15:39:36.077Z,1.80
2022-08-25T15:42:05.421Z,1.80
2022-08-25T15:44:33.984Z,1.90
2022-08-25T15:47:03.741Z,1.98
2022-08-25T15:49:31.564Z,1.80
2022-08-25T15:51:59.961Z,1.65
2022-08-25T15:54:28.591Z,1.70
2022-08-25T15:56:58.574Z,1.70
2022-08-25T15:59:28.280Z,1.60
2022-08-25T16:01:55.897Z,1.70
2022-08-25T16:04:25.399Z,1.88
2022-08-25T16:06:54.235Z,1.90
2022-08-25T16:09:23.638Z,1.73
2022-08-25T16:11:56.108Z,1.67
2022-08-25T16:14:27.632Z,1.90
2022-08-25T16:16:58.489Z,2.10
2022-08-25T16:19:28.354Z,1.90
2022-08-25T16:21:56.409Z,2.00
2022-08-25T16:24:24.316Z,1.70
2022-08-25T16:26:52.306Z,1.73
2022-08-25T16:29:23.199Z,1.77
2022-08-25T16:31:54.873Z,1.70
2022-08-25T16:34:24.608Z,1.50
2022-08-25T16:36:56.177Z,1.77
2022-08-25T16:39:24.666Z,1.80
2022-08-25T16:41:52.748Z,2.00
2022-08-25T16:44:22.830Z,1.80
2022-08-25T16:46:54.283Z,1.80
2022-08-25T16:49:24.501Z,1.75
2022-08-25T16:51:57.181Z,1.90
2022-08-25T16:54:44.939Z,1.90
2022-08-25T16:57:12.988Z,1.60
2022-08-25T16:59:43.770Z,1.77
2022-08-25T17:02:12.248Z,1.65
2022-08-25T17:04:40.725Z,1.52
2022-08-25T17:07:08.299Z,1.70
2022-08-25T17:09:36.360Z,1.70
2022-08-25T17:12:05.496Z,1.85
2022-08-25T17:14:33.014Z,1.50
2022-08-25T17:17:00.929Z,1.70
2022-08-25T17:19:28.427Z,1.70
2022-08-25T17:21:55.980Z,1.80
2022-08-25T17:24:29.701Z,1.77
2022-08-25T17:27:00.208Z,1.50
2022-08-25T17:29:29.337Z,1.90
2022-08-25T17:31:57.596Z,1.73
2022-08-25T17:34:28.660Z,1.80
2022-08-25T17:36:57.484Z,2.15
2022-08-25T17:39:25.956Z,2.00
2022-08-25T17:41:53.895Z,1.92
2022-08-25T17:44:21.468Z,2.08
2022-08-25T17:46:49.053Z,2.28
2022-08-25T17:49:17.694Z,2.70
2022-08-25T17:51:45.431Z,3.00
2022-08-25T17:54:13.370Z,2.95
2022-08-25T17:56:41.300Z,2.70
2022-08-25T17:59:09.236Z,2.72
2022-08-25T18:01:40.132Z,2.70
2022-08-25T18:04:18.023Z,2.88
2022-08-25T18:06:48.515Z,2.92
2022-08-25T18:09:17.492Z,2.72
2022-08-25T18:11:45.977Z,2.67
2022-08-25T18:14:16.816Z,2.33
2022-08-25T18:16:45.223Z,2.70
2022-08-25T18:19:14.239Z,2.55
2022-08-25T18:21:43.431Z,2.53
2022-08-25T18:24:13.283Z,2.63
2022-08-25T18:26:40.946Z,2.58
2022-08-25T18:29:13.051Z,2.50
2022-08-25T18:31:41.801Z,2.38
2022-08-25T18:34:11.764Z,2.55
2022-08-25T18:36:40.988Z,2.10
2022-08-25T18:39:29.559Z,2.10
2022-08-25T18:42:01.542Z,2.38
2022-08-25T18:44:29.205Z,2.35
2022-08-25T18:46:56.642Z,2.20
2022-08-25T18:49:26.878Z,2.75
2022-08-25T18:51:56.451Z,2.38
2022-08-25T18:54:24.204Z,2.40
2022-08-25T18:56:53.199Z,2.40
2022-08-25T18:59:23.779Z,2.20
2022-08-25T19:01:53.927Z,2.40
2022-08-25T19:04:28.306Z,2.40
2022-08-25T19:07:01.258Z,2.55
2022-08-25T19:09:30.549Z,2.83
2022-08-25T19:11:59.141Z,2.80
2022-08-25T19:14:26.726Z,2.80
2022-08-25T19:16:54.942Z,2.60
2022-08-25T19:19:24.124Z,2.83
2022-08-25T19:21:51.805Z,3.08
2022-08-25T19:24:20.065Z,2.90
2022-08-25T19:26:50.447Z,2.97
2022-08-25T19:29:21.967Z,2.70
2022-08-25T19:31:49.671Z,3.15
2022-08-25T19:34:28.358Z,3.67
2022-08-25T19:37:01.925Z,4.18
2022-08-25T19:39:34.144Z,4.00
2022-08-25T19:42:03.268Z,4.68
2022-08-25T19:44:32.327Z,4.18
2022-08-25T19:46:59.957Z,3.95
2022-08-25T19:49:31.529Z,3.70
2022-08-25T19:52:02.203Z,3.78
2022-08-25T19:54:35.574Z,3.20
2022-08-25T19:57:05.211Z,3.20
2022-08-25T19:59:42.438Z,3.38
2022-08-25T20:02:18.056Z,3.00
2022-08-25T20:04:49.935Z,2.90
2022-08-25T20:07:23.723Z,2.83
2022-08-25T20:09:53.610Z,2.50
2022-08-25T20:12:23.673Z,3.03
2022-08-25T20:14:53.124Z,3.08
2022-08-25T20:17:24.879Z,2.63
2022-08-25T20:19:59.322Z,2.60
2022-08-25T20:22:29.395Z,2.40
2022-08-25T20:25:09.464Z,2.78
2022-08-25T20:27:44.489Z,2.83
2022-08-25T20:30:22.845Z,2.92
2022-08-25T20:32:52.163Z,2.60
2022-08-25T20:35:20.611Z,2.85
2022-08-25T20:37:56.607Z,2.85
2022-08-25T20:40:26.562Z,2.72
2022-08-25T20:42:55.695Z,2.63
2022-08-25T20:45:23.696Z,2.75
2022-08-25T20:47:51.613Z,2.92
2022-08-25T20:50:19.644Z,2.67
2022-08-25T20:52:48.582Z,3.00
2022-08-25T20:55:17.571Z,2.70
2022-08-25T20:57:46.717Z,2.70
2022-08-25T21:00:15.706Z,2.65
2022-08-25T21:02:46.227Z,2.83
2022-08-25T21:05:14.380Z,2.83
2022-08-25T21:07:42.125Z,2.53
2022-08-25T21:10:14.313Z,3.10
2022-08-25T21:12:45.256Z,2.70
2022-08-25T21:15:13.771Z,2.70
2022-08-25T21:17:50.621Z,2.88
2022-08-25T21:20:18.437Z,2.63
2022-08-25T21:22:45.865Z,2.90
2022-08-25T21:25:13.795Z,2.67
2022-08-25T21:27:41.391Z,2.92
2022-08-25T21:30:12.228Z,3.13
2022-08-25T21:32:39.861Z,3.38
2022-08-25T21:35:30.971Z,2.88
2022-08-25T21:37:59.128Z,2.75
2022-08-25T21:40:28.696Z,2.78
2022-08-25T21:42:56.144Z,3.20
2022-08-25T21:45:23.801Z,3.30
2022-08-25T21:47:51.910Z,2.63
2022-08-25T21:50:20.531Z,2.90
2022-08-25T21:52:48.345Z,2.90
2022-08-25T21:55:22.067Z,2.50
2022-08-25T21:57:50.318Z,2.90
2022-08-25T22:00:19.112Z,2.75
2022-08-25T22:02:49.642Z,2.88
2022-08-25T22:05:17.240Z,3.00
2022-08-25T22:07:45.181Z,2.95
2022-08-25T22:10:17.608Z,2.85
2022-08-25T22:12:47.462Z,3.08
2022-08-25T22:15:17.854Z,3.05
2022-08-25T22:17:48.088Z,3.33
2022-08-25T22:20:17.625Z,3.33
2022-08-25T22:22:45.084Z,3.17
2022-08-25T22:25:13.080Z,2.97
2022-08-25T22:27:40.559Z,3.28
2022-08-25T22:30:08.429Z,2.88
2022-08-25T22:32:36.116Z,3.78
2022-08-25T22:35:06.028Z,3.42
2022-08-25T22:37:35.376Z,3.20
2022-08-25T22:40:03.319Z,3.35
2022-08-25T22:42:31.475Z,3.60
2022-08-25T22:44:58.937Z,3.30
2022-08-25T22:47:26.437Z,3.40
2022-08-25T22:49:55.457Z,3.45
2022-08-25T22:52:31.975Z,3.47
2022-08-25T22:55:02.913Z,3.78
2022-08-25T22:57:30.804Z,3.60
2022-08-25T22:59:59.268Z,3.75
2022-08-25T23:02:30.152Z,3.28
2022-08-25T23:04:58.099Z,3.70
2022-08-25T23:07:29.057Z,3.85
2022-08-25T23:09:59.668Z,4.05
2022-08-25T23:12:27.127Z,3.97
2022-08-25T23:14:57.437Z,3.83
2022-08-25T23:17:26.762Z,3.95
2022-08-25T23:19:54.232Z,4.32
2022-08-25T23:22:22.681Z,4.05
2022-08-25T23:24:52.543Z,4.20
2022-08-25T23:27:22.029Z,4.15
2022-08-25T23:29:50.906Z,4.03
2022-08-25T23:32:18.719Z,4.07
2022-08-25T23:34:47.250Z,4.20
2022-08-25T23:37:18.450Z,4.18
2022-08-25T23:39:49.411Z,4.20
2022-08-25T23:42:19.357Z,4.03
2022-08-25T23:44:48.194Z,4.30
2022-08-25T23:47:17.000Z,4.00
2022-08-25T23:49:45.540Z,4.57
2022-08-25T23:52:17.131Z,4.63
2022-08-25T23:54:45.411Z,4.15
2022-08-25T23:57:13.063Z,4.43
2022-08-25T23:59:40.521Z,4.50
